Time;durP1;ratioP1;P1;durP2;ratioP2;P2;SDS_P1;SDS_P2;PMS_P1;PMS_P2;Temp;Humidity;BMP_temperature;BMP_pressure;BME280_temperature;BME280_humidity;BME280_pressure;Samples;Min_cycle;Max_cycle;Signal;HPM_P1;HPM_P2
2023/08/20 00:01:56;;;;;;;11.10;3.53;;;16.30;99.90;;;;;;5079844;27;20568;-83
2023/08/20 00:04:25;;;;;;;8.80;3.25;;;16.30;99.90;;;;;;5073727;27;20044;-82
2023/08/20 00:06:51;;;;;;;8.25;3.00;;;16.20;99.90;;;;;;5063312;27;20051;-82
2023/08/20 00:09:18;;;;;;;8.00;3.08;;;16.20;99.90;;;;;;5076500;27;20478;-83
2023/08/20 00:11:44;;;;;;;8.25;3.15;;;16.20;99.90;;;;;;5079398;27;20036;-82
2023/08/20 00:14:17;;;;;;;8.75;3.38;;;16.20;99.90;;;;;;5073545;27;20050;-82
2023/08/20 00:16:44;;;;;;;8.77;3.03;;;16.20;99.90;;;;;;5079582;27;20062;-81
2023/08/20 00:19:10;;;;;;;8.95;2.78;;;16.10;99.90;;;;;;5088917;27;20046;-81
2023/08/20 00:21:42;;;;;;;8.70;2.90;;;16.10;99.90;;;;;;5077074;27;20110;-81
2023/08/20 00:24:08;;;;;;;8.77;3.00;;;16.10;99.90;;;;;;5093194;27;20135;-81
2023/08/20 00:26:34;;;;;;;9.77;3.05;;;16.10;99.90;;;;;;5094563;27;20076;-81
2023/08/20 00:29:01;;;;;;;14.55;3.45;;;16.00;99.90;;;;;;5092075;27;20478;-81
2023/08/20 00:31:27;;;;;;;7.68;3.13;;;16.00;99.90;;;;;;5063962;27;20092;-82
2023/08/20 00:33:53;;;;;;;10.55;3.92;;;16.10;99.90;;;;;;5106223;27;20043;-82
2023/08/20 00:36:19;;;;;;;7.75;3.33;;;16.00;99.90;;;;;;5093949;27;20134;-82
2023/08/20 00:38:44;;;;;;;9.57;3.60;;;15.90;99.90;;;;;;5078719;27;20106;-82
2023/08/20 00:41:10;;;;;;;10.18;3.75;;;16.00;99.90;;;;;;5087629;27;20149;-82
2023/08/20 00:43:36;;;;;;;11.00;3.70;;;16.00;99.90;;;;;;5083322;27;20051;-82
2023/08/20 00:46:03;;;;;;;8.32;3.80;;;16.00;99.90;;;;;;5081465;27;20036;-82
2023/08/20 00:48:29;;;;;;;12.10;3.90;;;16.00;99.90;;;;;;5097654;27;20047;-82
2023/08/20 00:50:55;;;;;;;7.45;3.33;;;16.00;99.90;;;;;;5082347;27;20043;-82
2023/08/20 00:53:21;;;;;;;10.45;3.90;;;16.00;99.90;;;;;;5095133;27;21686;-81
2023/08/20 00:55:47;;;;;;;8.73;3.63;;;15.90;99.90;;;;;;5079171;27;20048;-81
2023/08/20 00:58:14;;;;;;;8.20;3.33;;;15.90;99.90;;;;;;5096121;27;20047;-83
2023/08/20 01:00:39;;;;;;;10.73;3.72;;;15.90;99.90;;;;;;5090929;27;20042;-82
2023/08/20 01:03:05;;;;;;;9.73;3.75;;;15.90;99.90;;;;;;5063385;27;20039;-82
2023/08/20 01:05:37;;;;;;;11.80;3.42;;;15.90;99.90;;;;;;5096566;27;20039;-82
2023/08/20 01:08:22;;;;;;;12.32;3.80;;;15.90;99.90;;;;;;5083771;27;20147;-82
2023/08/20 01:11:06;;;;;;;7.88;3.50;;;15.90;99.90;;;;;;5089198;27;20078;-82
2023/08/20 01:13:33;;;;;;;10.35;3.45;;;15.90;99.90;;;;;;5090493;27;20042;-82
2023/08/20 01:15:59;;;;;;;10.10;3.53;;;15.90;99.90;;;;;;5104058;27;20078;-82
2023/08/20 01:18:25;;;;;;;10.65;3.42;;;15.80;99.90;;;;;;5083450;27;20739;-82
2023/08/20 01:20:56;;;;;;;10.50;3.53;;;15.80;99.90;;;;;;5062612;27;20047;-82
2023/08/20 01:23:42;;;;;;;11.75;3.60;;;15.80;99.90;;;;;;5091435;27;20043;-82
2023/08/20 01:26:33;;;;;;;10.00;3.63;;;15.80;99.90;;;;;;5100535;27;20071;-82
2023/08/20 01:28:59;;;;;;;9.82;3.53;;;15.80;99.90;;;;;;5096611;27;20049;-82
2023/08/20 01:31:26;;;;;;;10.60;3.50;;;15.80;99.90;;;;;;5065213;27;20635;-81
2023/08/20 01:33:52;;;;;;;10.05;3.67;;;15.80;99.90;;;;;;5082387;27;20040;-82
2023/08/20 01:36:19;;;;;;;9.57;4.03;;;15.80;99.90;;;;;;5080663;27;20092;-82
2023/08/20 01:38:45;;;;;;;10.98;4.35;;;15.80;99.90;;;;;;5093334;27;20058;-82
2023/08/20 01:41:11;;;;;;;14.32;4.35;;;15.90;99.90;;;;;;5061892;27;20933;-80
2023/08/20 01:43:37;;;;;;;11.43;4.00;;;15.90;99.90;;;;;;5068726;27;20038;-81
2023/08/20 01:46:02;;;;;;;11.02;4.25;;;15.60;99.90;;;;;;5078642;27;20051;-81
2023/08/20 01:48:34;;;;;;;10.82;3.80;;;15.90;99.90;;;;;;5088239;27;20281;-81
2023/08/20 01:51:00;;;;;;;11.95;3.75;;;15.80;99.90;;;;;;5096326;27;20189;-82
2023/08/20 01:53:26;;;;;;;11.30;3.55;;;15.80;99.90;;;;;;5084517;27;20043;-81
2023/08/20 01:55:52;;;;;;;8.95;3.42;;;15.80;99.90;;;;;;5096405;27;20047;-81
2023/08/20 01:58:17;;;;;;;7.40;3.20;;;15.80;99.90;;;;;;5095570;27;20051;-81
2023/08/20 02:00:47;;;;;;;10.27;3.67;;;15.80;99.90;;;;;;5075587;27;22310;-81
2023/08/20 02:03:13;;;;;;;7.53;3.20;;;15.80;99.90;;;;;;5065213;27;20040;-81
2023/08/20 02:05:39;;;;;;;9.32;3.35;;;15.80;99.90;;;;;;5064658;27;20039;-81
2023/08/20 02:08:05;;;;;;;9.52;3.47;;;15.80;99.90;;;;;;5091531;27;20078;-81
2023/08/20 02:10:30;;;;;;;9.68;3.50;;;15.80;99.90;;;;;;5068052;27;20508;-81
2023/08/20 02:12:56;;;;;;;9.13;3.05;;;15.80;99.90;;;;;;5075783;27;20097;-82
2023/08/20 02:15:22;;;;;;;10.45;3.53;;;15.80;99.90;;;;;;5094652;27;20051;-81
2023/08/20 02:17:48;;;;;;;7.40;2.83;;;15.70;99.90;;;;;;5077636;27;20061;-82
2023/08/20 02:20:13;;;;;;;8.45;3.65;;;15.70;99.90;;;;;;5081276;27;20039;-82
2023/08/20 02:22:39;;;;;;;10.90;3.78;;;15.70;99.90;;;;;;5080310;27;20062;-82
2023/08/20 02:25:05;;;;;;;7.72;3.63;;;15.70;99.90;;;;;;5064343;27;20073;-81
2023/08/20 02:27:31;;;;;;;9.02;3.42;;;15.70;99.90;;;;;;5062895;27;20325;-82
2023/08/20 02:29:57;;;;;;;9.60;3.60;;;15.70;99.90;;;;;;5065469;27;20537;-81
2023/08/20 02:32:22;;;;;;;10.80;3.92;;;15.70;99.90;;;;;;5092864;27;20035;-82
2023/08/20 02:34:52;;;;;;;11.25;3.60;;;15.70;99.90;;;;;;5073585;27;20047;-82
2023/08/20 02:37:17;;;;;;;10.05;3.80;;;15.60;99.90;;;;;;5092368;27;20039;-82
2023/08/20 02:39:43;;;;;;;7.25;3.70;;;15.60;99.90;;;;;;5072163;27;20461;-82
2023/08/20 02:42:09;;;;;;;9.38;3.55;;;15.60;99.90;;;;;;5100439;27;20083;-82
2023/08/20 02:44:35;;;;;;;8.73;3.72;;;15.60;99.90;;;;;;5093040;27;20104;-81
2023/08/20 02:47:00;;;;;;;9.18;3.70;;;15.60;99.90;;;;;;5079972;27;20078;-82
2023/08/20 02:49:26;;;;;;;8.15;3.70;;;15.50;99.90;;;;;;5049422;27;20047;-81
2023/08/20 02:51:52;;;;;;;9.50;3.83;;;15.50;99.90;;;;;;5081000;27;20054;-82
2023/08/20 02:54:18;;;;;;;10.75;4.35;;;15.50;99.90;;;;;;5089946;27;20557;-82
2023/08/20 02:56:43;;;;;;;7.05;3.35;;;15.50;99.90;;;;;;5096793;27;20135;-81
2023/08/20 02:59:09;;;;;;;8.73;3.58;;;15.40;99.90;;;;;;5099415;27;20040;-82
2023/08/20 03:01:35;;;;;;;8.50;3.55;;;15.40;99.90;;;;;;5076596;27;20047;-81
2023/08/20 03:04:01;;;;;;;9.05;3.45;;;15.40;99.90;;;;;;5091006;27;20069;-81
2023/08/20 03:06:33;;;;;;;9.63;3.70;;;15.40;99.90;;;;;;5080942;27;20104;-81
2023/08/20 03:08:58;;;;;;;9.13;3.28;;;15.50;99.90;;;;;;5062472;27;20423;-82
2023/08/20 03:11:24;;;;;;;8.98;3.50;;;15.40;99.90;;;;;;5077794;27;20035;-81
2023/08/20 03:13:50;;;;;;;8.88;3.78;;;15.40;99.90;;;;;;5092909;27;20462;-81
2023/08/20 03:16:16;;;;;;;8.88;3.38;;;15.50;99.90;;;;;;5094406;27;20132;-82
2023/08/20 03:18:42;;;;;;;10.25;4.05;;;15.40;99.90;;;;;;5115174;27;20047;-82
2023/08/20 03:21:08;;;;;;;11.80;4.25;;;15.40;99.90;;;;;;5078013;27;21618;-82
2023/08/20 03:23:34;;;;;;;12.48;3.97;;;15.40;99.90;;;;;;5094913;27;20134;-82
2023/08/20 03:25:59;;;;;;;11.20;3.75;;;15.40;99.90;;;;;;5077793;27;20083;-81
2023/08/20 03:28:25;;;;;;;9.38;3.58;;;15.40;99.90;;;;;;5077213;27;20405;-81
2023/08/20 03:30:51;;;;;;;13.88;3.97;;;15.40;99.90;;;;;;5093995;27;20111;-81
2023/08/20 03:33:17;;;;;;;8.57;4.00;;;15.50;99.90;;;;;;5092032;27;20047;-82
2023/08/20 03:35:43;;;;;;;13.05;4.15;;;15.50;99.90;;;;;;5090178;27;20214;-82
2023/08/20 03:38:08;;;;;;;12.45;4.40;;;15.50;99.90;;;;;;5097499;27;20393;-81
2023/08/20 03:40:34;;;;;;;9.57;3.63;;;15.60;99.90;;;;;;5091869;27;20934;-82
2023/08/20 03:43:00;;;;;;;9.88;3.90;;;15.70;99.90;;;;;;5077522;27;20071;-81
2023/08/20 03:45:28;;;;;;;12.80;3.58;;;15.80;99.90;;;;;;5090002;27;20044;-82
2023/08/20 03:47:54;;;;;;;10.23;3.20;;;15.90;99.90;;;;;;5094831;27;20134;-82
2023/08/20 03:50:19;;;;;;;14.73;3.95;;;16.00;99.90;;;;;;5095183;27;20039;-81
2023/08/20 03:52:45;;;;;;;14.35;3.50;;;16.20;99.90;;;;;;5091839;27;20478;-82
2023/08/20 03:55:11;;;;;;;10.45;2.53;;;16.30;99.90;;;;;;5078304;27;20337;-82
2023/08/20 03:57:37;;;;;;;11.93;3.08;;;16.40;99.90;;;;;;5082949;27;20103;-82
2023/08/20 04:00:04;;;;;;;11.20;3.15;;;16.40;99.90;;;;;;5093763;27;20103;-82
2023/08/20 04:02:29;;;;;;;10.20;2.80;;;16.50;99.90;;;;;;5081520;27;20153;-81
2023/08/20 04:04:57;;;;;;;12.52;2.60;;;16.60;99.90;;;;;;5066905;27;20047;-81
2023/08/20 04:07:24;;;;;;;12.38;2.83;;;16.60;99.90;;;;;;5093819;27;20477;-81
2023/08/20 04:09:50;;;;;;;15.85;2.90;;;16.70;99.90;;;;;;5092266;27;20409;-82
2023/08/20 04:12:15;;;;;;;9.38;2.90;;;16.70;99.90;;;;;;5061257;27;20058;-82
2023/08/20 04:14:41;;;;;;;10.52;2.80;;;16.80;99.90;;;;;;5091525;27;20043;-81
2023/08/20 04:17:07;;;;;;;15.85;3.25;;;16.80;99.90;;;;;;5079421;27;20051;-80
2023/08/20 04:19:33;;;;;;;12.30;2.70;;;17.00;99.90;;;;;;5049522;27;20141;-81
2023/08/20 04:21:58;;;;;;;18.27;3.10;;;17.10;99.90;;;;;;5089273;27;20071;-82
2023/08/20 04:24:24;;;;;;;11.18;2.72;;;17.10;99.90;;;;;;5094940;27;20379;-82
2023/08/20 04:26:50;;;;;;;10.95;3.10;;;17.20;99.90;;;;;;5064159;27;20047;-82
2023/08/20 04:29:16;;;;;;;14.70;3.05;;;17.30;99.90;;;;;;5073113;27;20043;-82
2023/08/20 04:31:41;;;;;;;10.75;2.60;;;17.30;99.90;;;;;;5093046;27;20063;-81
2023/08/20 04:34:08;;;;;;;15.02;3.28;;;17.40;99.90;;;;;;5096532;27;20043;-81
2023/08/20 04:36:33;;;;;;;9.95;2.72;;;17.40;99.90;;;;;;5093708;28;20071;-81
2023/08/20 04:38:59;;;;;;;11.82;3.40;;;17.50;99.90;;;;;;5063460;27;20085;-82
2023/08/20 04:41:26;;;;;;;12.82;3.05;;;17.50;99.90;;;;;;5089571;27;20047;-81
2023/08/20 04:43:51;;;;;;;12.65;2.67;;;17.60;99.90;;;;;;5091355;27;20061;-82
2023/08/20 04:46:18;;;;;;;16.38;3.42;;;17.60;99.90;;;;;;5048173;27;20039;-81
2023/08/20 04:48:44;;;;;;;11.48;2.83;;;17.60;99.90;;;;;;5080632;27;20093;-82
2023/08/20 04:51:10;;;;;;;13.68;3.10;;;17.60;99.90;;;;;;5090695;27;20135;-82
2023/08/20 04:53:36;;;;;;;12.32;2.97;;;17.60;99.90;;;;;;5091461;27;20044;-82
2023/08/20 04:56:02;;;;;;;17.42;3.88;;;17.70;99.90;;;;;;5091484;27;20046;-82
2023/08/20 04:58:28;;;;;;;12.10;3.22;;;17.70;99.90;;;;;;5097020;27;20131;-81
2023/08/20 05:00:54;;;;;;;15.05;3.50;;;17.70;99.90;;;;;;5089941;27;20126;-80
2023/08/20 05:03:20;;;;;;;14.13;3.20;;;17.80;99.90;;;;;;5090399;27;20505;-81
2023/08/20 05:05:50;;;;;;;15.30;4.05;;;17.80;99.90;;;;;;5079754;27;20058;-81
2023/08/20 05:08:16;;;;;;;14.32;3.55;;;17.80;99.90;;;;;;5077653;27;20493;-82
2023/08/20 05:10:42;;;;;;;12.68;3.00;;;17.80;99.90;;;;;;5091162;27;20039;-82
2023/08/20 05:13:08;;;;;;;11.88;3.17;;;17.80;99.90;;;;;;5077464;28;20039;-81
2023/08/20 05:15:34;;;;;;;12.63;3.22;;;17.80;99.90;;;;;;5073757;27;20168;-81
2023/08/20 05:18:00;;;;;;;13.30;3.17;;;17.90;99.90;;;;;;5078828;27;20039;-81
2023/08/20 05:20:26;;;;;;;11.90;2.80;;;17.90;99.90;;;;;;5089394;27;20043;-82
2023/08/20 05:22:51;;;;;;;16.35;3.20;;;17.90;99.90;;;;;;5062445;27;20056;-81
2023/08/20 05:25:17;;;;;;;14.65;3.28;;;17.90;99.90;;;;;;5080897;27;20538;-81
2023/08/20 05:27:43;;;;;;;11.52;3.17;;;18.00;99.90;;;;;;5095907;27;20116;-88
2023/08/20 05:30:09;;;;;;;12.48;3.13;;;18.00;99.90;;;;;;5081311;27;20055;-88
2023/08/20 05:32:36;;;;;;;12.77;3.30;;;18.00;99.90;;;;;;5061859;27;20035;-88
2023/08/20 05:35:03;;;;;;;14.30;2.88;;;18.00;99.90;;;;;;5097415;27;20541;-81
2023/08/20 05:37:30;;;;;;;18.35;3.60;;;18.00;99.90;;;;;;5094797;27;20126;-85
2023/08/20 05:39:55;;;;;;;15.07;3.28;;;18.10;99.90;;;;;;5082807;27;20043;-84
2023/08/20 05:42:21;;;;;;;15.73;3.88;;;18.10;99.90;;;;;;5094847;27;20036;-83
2023/08/20 05:44:47;;;;;;;13.13;2.97;;;18.10;99.90;;;;;;5079214;27;20122;-84
2023/08/20 05:47:13;;;;;;;15.30;3.28;;;18.10;99.90;;;;;;5096198;27;20081;-84
2023/08/20 05:49:38;;;;;;;15.93;3.83;;;18.10;99.90;;;;;;5094534;27;20051;-83
2023/08/20 05:52:04;;;;;;;14.85;3.33;;;18.20;99.90;;;;;;5064180;27;20043;-84
2023/08/20 05:54:30;;;;;;;13.93;3.80;;;18.20;99.90;;;;;;5094121;27;20051;-85
2023/08/20 05:56:58;;;;;;;14.30;2.70;;;18.20;99.90;;;;;;5095062;27;20500;-85
2023/08/20 05:59:24;;;;;;;16.55;3.28;;;18.30;99.90;;;;;;5093470;27;20054;-86
2023/08/20 06:01:50;;;;;;;14.77;3.33;;;18.30;99.90;;;;;;5068129;27;20036;-84
2023/08/20 06:04:16;;;;;;;15.52;3.28;;;18.40;99.90;;;;;;5080838;27;20066;-84
2023/08/20 06:06:42;;;;;;;15.23;3.20;;;18.30;99.90;;;;;;5101615;27;20043;-82
2023/08/20 06:09:07;;;;;;;14.45;3.25;;;18.40;99.90;;;;;;5093212;27;20101;-84
2023/08/20 06:11:33;;;;;;;9.60;3.08;;;18.40;99.90;;;;;;5096863;27;20039;-83
2023/08/20 06:13:59;;;;;;;17.48;3.50;;;18.50;99.90;;;;;;5095164;27;20074;-83
2023/08/20 06:16:24;;;;;;;10.73;2.75;;;18.50;99.90;;;;;;5081884;27;20327;-84
2023/08/20 06:18:50;;;;;;;17.73;3.40;;;18.60;99.90;;;;;;5078738;27;20101;-86
2023/08/20 06:21:19;;;;;;;12.90;3.03;;;18.60;99.90;;;;;;5096084;27;20154;-84
2023/08/20 06:23:47;;;;;;;12.77;3.25;;;18.60;99.90;;;;;;5098270;27;20043;-84
2023/08/20 06:26:13;;;;;;;14.93;3.22;;;18.70;99.90;;;;;;5095326;27;20070;-83
2023/08/20 06:28:38;;;;;;;13.48;2.85;;;18.70;99.90;;;;;;5092710;27;20107;-76
2023/08/20 06:31:04;;;;;;;12.95;3.28;;;18.80;99.90;;;;;;5080253;27;20048;-78
2023/08/20 06:33:30;;;;;;;13.35;3.20;;;18.80;99.90;;;;;;5094322;27;20047;-78
2023/08/20 06:35:56;;;;;;;11.98;2.97;;;18.90;99.90;;;;;;5097699;27;20039;-78
2023/08/20 06:38:21;;;;;;;11.23;3.00;;;18.90;99.90;;;;;;5069981;27;20050;-78
2023/08/20 06:40:47;;;;;;;12.55;2.80;;;19.00;99.90;;;;;;5081979;27;20111;-78
2023/08/20 06:43:13;;;;;;;12.93;3.35;;;19.10;99.90;;;;;;5093625;27;20047;-78
2023/08/20 06:45:39;;;;;;;10.52;3.45;;;19.10;99.90;;;;;;5084509;27;20469;-78
2023/08/20 06:48:05;;;;;;;18.35;3.20;;;19.30;99.90;;;;;;5088258;27;20493;-78
2023/08/20 06:50:31;;;;;;;14.05;3.25;;;19.30;99.90;;;;;;5082189;27;20053;-78
2023/08/20 06:52:56;;;;;;;13.48;3.38;;;19.40;99.90;;;;;;5079286;27;20044;-78
2023/08/20 06:55:22;;;;;;;15.30;2.97;;;19.50;99.90;;;;;;5080696;27;20207;-78
2023/08/20 06:57:48;;;;;;;11.05;3.10;;;19.60;99.90;;;;;;5096970;27;20393;-78
2023/08/20 07:00:14;;;;;;;13.57;3.38;;;19.70;99.90;;;;;;5063297;27;20051;-78
2023/08/20 07:02:41;;;;;;;11.88;2.60;;;19.70;99.90;;;;;;5095448;27;20059;-80
2023/08/20 07:05:09;;;;;;;12.70;3.10;;;19.80;99.90;;;;;;5078109;27;20056;-78
2023/08/20 07:07:35;;;;;;;15.45;3.00;;;19.90;99.90;;;;;;5081776;27;20044;-79
2023/08/20 07:10:01;;;;;;;12.25;3.05;;;20.00;99.90;;;;;;5095621;27;20106;-79
2023/08/20 07:12:26;;;;;;;9.70;2.70;;;20.20;99.90;;;;;;5092460;27;20047;-79
2023/08/20 07:14:52;;;;;;;12.60;2.83;;;20.30;99.90;;;;;;5096716;27;20051;-79
2023/08/20 07:17:18;;;;;;;14.07;2.85;;;20.40;99.90;;;;;;5077124;27;20111;-79
2023/08/20 07:19:44;;;;;;;11.10;2.47;;;20.50;99.90;;;;;;5085234;27;20058;-79
2023/08/20 07:22:10;;;;;;;12.73;2.70;;;20.60;99.90;;;;;;5096024;27;20421;-83
2023/08/20 07:24:35;;;;;;;10.82;2.50;;;20.40;99.90;;;;;;5065310;27;20077;-78
2023/08/20 07:27:03;;;;;;;9.75;2.42;;;20.70;99.90;;;;;;5095199;27;20082;-77
2023/08/20 07:29:29;;;;;;;10.80;2.33;;;20.80;99.90;;;;;;5080177;27;20039;-81
2023/08/20 07:31:57;;;;;;;12.30;2.95;;;20.80;99.90;;;;;;5095688;27;20047;-79
2023/08/20 07:34:22;;;;;;;8.10;2.80;;;20.90;99.90;;;;;;5063719;27;20075;-80
2023/08/20 07:36:48;;;;;;;10.88;2.67;;;21.10;99.90;;;;;;5098075;27;20154;-79
2023/08/20 07:39:17;;;;;;;13.70;3.15;;;21.20;99.90;;;;;;5095698;27;20039;-79
2023/08/20 07:41:42;;;;;;;12.10;3.15;;;21.30;99.90;;;;;;5092600;27;20031;-80
2023/08/20 07:44:08;;;;;;;12.93;2.78;;;21.30;99.90;;;;;;5080836;27;20074;-81
2023/08/20 07:46:34;;;;;;;10.10;2.42;;;21.30;99.90;;;;;;5089164;27;20058;-81
2023/08/20 07:49:00;;;;;;;9.98;2.67;;;21.40;99.90;;;;;;5083429;27;20161;-80
2023/08/20 07:51:26;;;;;;;12.88;3.05;;;21.40;99.90;;;;;;5064047;27;20123;-80
2023/08/20 07:53:52;;;;;;;17.73;3.22;;;21.40;99.90;;;;;;5096885;27;20140;-82
2023/08/20 07:56:18;;;;;;;11.48;2.33;;;21.40;99.90;;;;;;5078519;27;20072;-82
2023/08/20 07:58:43;;;;;;;13.05;2.90;;;21.40;99.90;;;;;;5083988;27;20055;-81
2023/08/20 08:01:13;;;;;;;14.30;2.90;;;21.40;99.90;;;;;;5104345;27;20119;-82
2023/08/20 08:03:40;;;;;;;8.43;2.40;;;21.60;99.90;;;;;;5097869;27;20656;-82
2023/08/20 08:06:06;;;;;;;10.88;2.75;;;21.70;99.90;;;;;;5083752;27;21869;-82
2023/08/20 08:08:32;;;;;;;15.35;3.40;;;21.90;99.90;;;;;;5048200;27;20135;-82
2023/08/20 08:10:58;;;;;;;9.48;2.63;;;22.00;99.90;;;;;;5062667;27;20043;-82
2023/08/20 08:13:23;;;;;;;9.90;2.20;;;22.10;99.80;;;;;;5077687;27;20055;-83
2023/08/20 08:15:51;;;;;;;13.88;2.58;;;22.20;99.30;;;;;;5079290;27;20071;-81
2023/08/20 08:18:20;;;;;;;10.95;2.22;;;22.30;98.40;;;;;;5085772;27;20496;-83
2023/08/20 08:20:46;;;;;;;12.20;2.20;;;22.40;97.90;;;;;;5085274;27;20053;-83
2023/08/20 08:23:12;;;;;;;10.93;2.10;;;22.40;97.30;;;;;;5130443;27;20035;-81
2023/08/20 08:25:38;;;;;;;9.02;2.63;;;22.50;96.30;;;;;;5112892;27;20039;-82
2023/08/20 08:28:05;;;;;;;10.90;2.08;;;22.50;95.80;;;;;;5087162;27;20051;-80
2023/08/20 08:30:31;;;;;;;10.77;2.22;;;22.60;95.50;;;;;;5079989;27;20055;-80
2023/08/20 08:32:56;;;;;;;13.05;3.20;;;22.70;95.10;;;;;;5062581;27;20181;-78
2023/08/20 08:35:22;;;;;;;11.38;2.88;;;22.80;94.40;;;;;;5091090;27;20055;-81
2023/08/20 08:37:49;;;;;;;8.57;2.22;;;22.90;93.40;;;;;;5062163;27;20154;-80
2023/08/20 08:40:15;;;;;;;8.77;2.13;;;23.00;93.10;;;;;;5098207;28;21459;-81
2023/08/20 08:42:42;;;;;;;9.35;2.20;;;23.10;92.80;;;;;;5078569;27;20040;-80
2023/08/20 08:45:09;;;;;;;9.30;2.38;;;23.20;92.50;;;;;;5078463;27;20047;-80
2023/08/20 08:47:36;;;;;;;10.90;2.10;;;23.30;92.00;;;;;;5090551;27;20058;-82
2023/08/20 08:50:02;;;;;;;7.85;2.28;;;23.40;91.80;;;;;;5076537;27;20050;-83
2023/08/20 08:52:30;;;;;;;8.10;2.22;;;23.50;91.00;;;;;;5084462;27;20031;-80
2023/08/20 08:54:56;;;;;;;10.75;2.15;;;23.60;90.40;;;;;;5080869;27;20056;-80
2023/08/20 08:57:22;;;;;;;10.43;2.20;;;23.70;89.30;;;;;;5063609;27;20158;-80
2023/08/20 08:59:48;;;;;;;8.88;1.80;;;23.80;88.00;;;;;;5065829;27;20047;-81
2023/08/20 09:02:18;;;;;;;5.90;2.03;;;24.00;87.40;;;;;;5095133;27;20466;-82
2023/08/20 09:04:44;;;;;;;8.77;2.53;;;24.20;86.60;;;;;;5082960;27;20036;-79
2023/08/20 09:07:14;;;;;;;10.63;2.35;;;24.40;84.60;;;;;;5067169;27;20039;-79
2023/08/20 09:09:44;;;;;;;10.63;2.55;;;24.40;82.70;;;;;;5084849;27;20043;-79
2023/08/20 09:12:19;;;;;;;9.65;2.22;;;24.20;82.50;;;;;;5098447;27;20031;-79
2023/08/20 09:14:50;;;;;;;10.00;2.50;;;23.90;81.70;;;;;;5095479;27;20089;-79
2023/08/20 09:17:16;;;;;;;11.80;2.63;;;24.00;84.80;;;;;;5094505;27;20135;-79
2023/08/20 09:19:44;;;;;;;10.45;2.33;;;24.00;85.50;;;;;;5097468;27;20058;-80
2023/08/20 09:22:12;;;;;;;11.60;2.75;;;24.00;84.10;;;;;;5097411;27;20044;-79
2023/08/20 09:24:44;;;;;;;10.15;2.10;;;24.00;83.30;;;;;;5097486;27;20543;-79
2023/08/20 09:27:09;;;;;;;11.68;2.70;;;23.90;83.20;;;;;;5117862;27;20047;-79
2023/08/20 09:29:50;;;;;;;8.30;2.10;;;24.00;84.40;;;;;;5100908;27;20400;-79
2023/08/20 09:32:18;;;;;;;12.35;3.05;;;24.10;84.50;;;;;;5086161;27;20040;-78
2023/08/20 09:34:44;;;;;;;7.65;2.08;;;24.30;83.90;;;;;;5098231;27;20046;-80
2023/08/20 09:37:12;;;;;;;10.30;2.05;;;24.30;82.20;;;;;;5095510;27;20042;-79
2023/08/20 09:39:38;;;;;;;12.07;2.58;;;24.40;82.20;;;;;;5086041;27;20080;-80
2023/08/20 09:42:05;;;;;;;9.60;2.30;;;24.60;82.40;;;;;;5101328;27;20548;-80
2023/08/20 09:44:36;;;;;;;9.25;1.88;;;24.80;80.50;;;;;;5081240;27;20086;-79
2023/08/20 09:47:24;;;;;;;8.00;2.20;;;24.90;77.90;;;;;;5099906;27;20131;-80
2023/08/20 09:49:52;;;;;;;10.07;2.53;;;25.00;72.20;;;;;;5098237;27;20093;-79
2023/08/20 09:52:30;;;;;;;11.85;2.13;;;25.20;73.40;;;;;;5098610;27;20096;-80
2023/08/20 09:55:10;;;;;;;6.65;2.08;;;25.30;67.50;;;;;;5100844;27;20174;-80
2023/08/20 09:57:41;;;;;;;9.82;2.10;;;25.50;68.40;;;;;;5090880;27;20043;-80
2023/08/20 10:00:12;;;;;;;7.72;2.13;;;25.60;66.60;;;;;;5119146;27;20627;-79
2023/08/20 10:02:39;;;;;;;9.60;2.20;;;25.60;64.30;;;;;;5073585;27;20572;-80
2023/08/20 10:05:09;;;;;;;6.85;2.22;;;25.60;62.20;;;;;;5081805;27;20051;-79
2023/08/20 10:07:36;;;;;;;9.38;1.98;;;25.60;60.50;;;;;;5107653;27;20054;-80
2023/08/20 10:10:05;;;;;;;8.43;2.00;;;25.90;60.40;;;;;;5099040;27;20046;-80
2023/08/20 10:12:31;;;;;;;8.88;2.15;;;26.00;56.70;;;;;;5099968;27;20043;-79
2023/08/20 10:14:59;;;;;;;10.45;2.45;;;25.90;53.70;;;;;;5082591;27;20054;-79
2023/08/20 10:17:25;;;;;;;12.13;3.17;;;26.00;54.10;;;;;;5099113;27;20486;-78
2023/08/20 10:19:52;;;;;;;11.00;2.05;;;26.00;53.70;;;;;;5084342;27;20055;-79
2023/08/20 10:22:19;;;;;;;8.48;2.10;;;26.10;52.40;;;;;;5100497;27;20390;-80
2023/08/20 10:24:50;;;;;;;10.48;1.88;;;25.90;51.00;;;;;;5099954;27;20057;-80
2023/08/20 10:27:27;;;;;;;9.70;1.88;;;26.00;53.20;;;;;;5104967;27;20124;-79
2023/08/20 10:29:54;;;;;;;9.45;1.98;;;26.10;53.10;;;;;;5099418;27;20035;-80
2023/08/20 10:32:20;;;;;;;8.55;2.17;;;26.10;53.50;;;;;;5075748;27;20047;-79
2023/08/20 10:34:52;;;;;;;9.25;2.00;;;26.20;52.00;;;;;;5096764;27;20126;-79
2023/08/20 10:37:30;;;;;;;6.80;1.98;;;26.20;49.70;;;;;;5099592;27;20043;-80
2023/08/20 10:39:57;;;;;;;10.70;1.88;;;26.40;49.50;;;;;;5107896;27;20051;-79
2023/08/20 10:42:27;;;;;;;9.13;1.90;;;26.60;47.40;;;;;;5100396;27;20053;-78
2023/08/20 10:45:03;;;;;;;11.18;2.55;;;27.00;47.00;;;;;;5090188;27;20062;-79
2023/08/20 10:47:42;;;;;;;7.10;1.75;;;27.30;43.30;;;;;;5096428;27;20047;-79
2023/08/20 10:50:10;;;;;;;10.95;2.20;;;27.40;36.00;;;;;;5102331;27;20050;-78
2023/08/20 10:52:49;;;;;;;9.23;1.98;;;27.40;36.50;;;;;;5093877;27;20075;-81
2023/08/20 10:55:24;;;;;;;10.65;2.20;;;27.70;30.70;;;;;;5086691;27;20066;-80
2023/08/20 10:57:57;;;;;;;9.55;2.42;;;27.50;26.90;;;;;;5097060;27;20039;-80
2023/08/20 11:00:23;;;;;;;9.63;2.08;;;27.40;24.60;;;;;;5097763;27;20169;-81
2023/08/20 11:02:49;;;;;;;6.65;1.90;;;27.30;26.70;;;;;;5099238;27;21210;-80
2023/08/20 11:05:21;;;;;;;10.52;2.60;;;27.40;27.90;;;;;;5069746;27;20051;-80
2023/08/20 11:07:48;;;;;;;10.57;2.58;;;27.40;26.60;;;;;;5068050;27;20065;-80
2023/08/20 11:10:18;;;;;;;9.52;2.38;;;27.40;26.10;;;;;;5087944;27;20054;-79
2023/08/20 11:12:46;;;;;;;13.57;2.63;;;27.50;26.00;;;;;;5085373;27;20055;-81
2023/08/20 11:15:12;;;;;;;10.27;1.75;;;27.60;22.10;;;;;;5083185;27;20039;-79
2023/08/20 11:17:57;;;;;;;6.43;1.92;;;27.70;21.40;;;;;;5097283;27;20050;-82
2023/08/20 11:20:23;;;;;;;9.73;2.13;;;27.60;12.60;;;;;;5076953;27;20039;-82
2023/08/20 11:22:49;;;;;;;7.20;1.90;;;27.70;19.90;;;;;;5097835;27;20062;-82
2023/08/20 11:25:15;;;;;;;7.68;2.35;;;27.70;19.00;;;;;;5082311;27;20545;-82
2023/08/20 11:27:42;;;;;;;8.80;1.98;;;27.70;20.50;;;;;;5067746;27;20670;-83
2023/08/20 11:30:11;;;;;;;13.75;3.05;;;27.50;20.80;;;;;;5069039;27;20039;-82
2023/08/20 11:32:38;;;;;;;8.40;2.10;;;27.70;22.40;;;;;;5087099;27;20095;-82
2023/08/20 11:35:05;;;;;;;12.68;2.70;;;27.90;19.10;;;;;;5098231;27;20062;-81
2023/08/20 11:37:31;;;;;;;7.85;2.00;;;27.90;15.30;;;;;;5081753;27;20043;-80
2023/08/20 11:39:56;;;;;;;9.13;2.05;;;27.60;13.30;;;;;;5067509;27;20055;-80
2023/08/20 11:42:23;;;;;;;7.28;1.80;;;27.50;14.90;;;;;;5070013;27;20035;-80
2023/08/20 11:44:49;;;;;;;6.72;1.92;;;27.40;14.20;;;;;;5076964;27;20036;-80
2023/08/20 11:47:18;;;;;;;8.45;2.20;;;27.40;16.50;;;;;;5113846;27;20062;-80
2023/08/20 11:49:44;;;;;;;7.00;2.30;;;27.60;17.90;;;;;;5085342;27;20047;-79
2023/08/20 11:52:13;;;;;;;10.68;2.30;;;27.60;16.40;;;;;;5096537;27;20157;-80
2023/08/20 11:54:39;;;;;;;6.28;1.80;;;27.70;13.80;;;;;;5078381;27;20453;-84
2023/08/20 11:57:06;;;;;;;9.20;2.03;;;27.70;10.50;;;;;;5080300;27;20043;-83
2023/08/20 11:59:32;;;;;;;7.78;2.25;;;27.70;12.10;;;;;;5083897;27;20035;-79
2023/08/20 12:02:00;;;;;;;10.50;2.33;;;27.50;10.80;;;;;;5096604;27;20393;-80
2023/08/20 12:04:28;;;;;;;10.95;2.30;;;27.50;11.50;;;;;;5096005;27;20112;-80
2023/08/20 12:07:13;;;;;;;9.70;2.67;;;27.30;11.70;;;;;;5096968;28;20054;-80
2023/08/20 12:09:40;;;;;;;11.38;2.10;;;27.30;7.40;;;;;;5089115;28;20073;-81
2023/08/20 12:12:07;;;;;;;7.00;2.22;;;27.30;12.70;;;;;;5082358;28;20043;-81
2023/08/20 12:14:34;;;;;;;6.75;1.67;;;27.40;11.30;;;;;;5068719;27;20047;-81
2023/08/20 12:17:03;;;;;;;7.95;1.63;;;27.50;8.30;;;;;;5070652;28;20054;-80
2023/08/20 12:19:29;;;;;;;8.40;1.85;;;27.50;6.40;;;;;;5081647;27;20058;-80
2023/08/20 12:21:55;;;;;;;8.43;2.28;;;27.70;1.80;;;;;;5098017;27;20043;-80
2023/08/20 12:24:20;;;;;;;6.47;2.00;;;27.80;1.00;;;;;;5097786;28;20108;-80
2023/08/20 12:26:46;;;;;;;10.82;2.50;;;27.70;1.00;;;;;;5097397;27;20057;-80
2023/08/20 12:29:12;;;;;;;9.90;1.98;;;27.80;1.00;;;;;;5094117;28;20046;-81
2023/08/20 12:31:39;;;;;;;8.18;2.25;;;27.90;1.00;;;;;;5086917;27;20043;-81
2023/08/20 12:34:05;;;;;;;8.40;2.00;;;27.80;1.00;;;;;;5089064;27;20344;-80
2023/08/20 12:36:31;;;;;;;8.52;1.98;;;27.80;1.00;;;;;;5054714;27;20310;-81
2023/08/20 12:38:57;;;;;;;6.53;1.60;;;27.80;1.00;;;;;;5068587;27;20103;-80
2023/08/20 12:41:23;;;;;;;7.45;2.00;;;27.50;1.00;;;;;;5083325;27;20039;-80